Central Virginia Flyers


Central Virginia Flyers is a 10 member flying club based in Richmond, VA at Hanover County Airport (KOFP). We own N787AT, a 1977 Cessna 172 with 180hp conversion. If you are interested in membership, please contact Brenton at brenton@cvflyers.org.


Aviation Digital Data Service (ADDS)

Output produced by METARs form (2314 UTC 27 August 2014)
found at http://aviationweather.gov/adds/metars/
 
KOFP 272254Z AUTO VRB05KT 10SM CLR 29/16 A2996 RMK AO2 SLP142 T02890161
KRIC 272254Z 35005KT 10SM FEW300 30/15 A2994 RMK AO2 SLP142 T03000150
KRIC 271737Z 2718/2818 01006KT P6SM SKC 
     FM280000 00000KT P6SM SKC 
     FM280800 34006KT P6SM SKC